← Previous June 17, 2024 8:45 PM

FTUS43 KFSD 151742
TAFHON
TAF
KHON 151742Z 1518/1618 16014G22KT P6SM VCSH FEW020 BKN250
      TEMPO 1518/1520 P6SM -SHRA BKN012
     FM152000 16014G21KT P6SM SCT020 BKN040
     FM161300 23008KT P6SM FEW200
     FM161400 28010G16KT P6SM FEW250
     FM161600 31011G17KT P6SM FEW250=